Time;durP1;ratioP1;P1;durP2;ratioP2;P2;SDS_P1;SDS_P2;PMS_P1;PMS_P2;Temp;Humidity;BMP_temperature;BMP_pressure;BME280_temperature;BME280_humidity;BME280_pressure;Samples;Min_cycle;Max_cycle;Signal;HPM_P1;HPM_P2
2023/03/17 00:01:11;;;;;;;4.70;2.45;;;;;;;;;;4921674;29;20662;-86
2023/03/17 00:03:39;;;;;;;3.90;2.50;;;;;;;;;;4904272;29;20186;-86
2023/03/17 00:06:06;;;;;;;2.92;2.55;;;;;;;;;;4921462;29;20194;-86
2023/03/17 00:08:33;;;;;;;6.22;2.25;;;;;;;;;;4904471;29;20190;-86
2023/03/17 00:11:00;;;;;;;3.10;2.33;;;;;;;;;;4904269;29;20296;-86
2023/03/17 00:13:26;;;;;;;3.40;2.50;;;;;;;;;;4904583;29;20224;-86
2023/03/17 00:15:54;;;;;;;8.00;3.17;;;;;;;;;;4921389;29;20257;-86
2023/03/17 00:18:21;;;;;;;4.55;2.28;;;;;;;;;;4921404;29;20544;-86
2023/03/17 00:20:47;;;;;;;5.75;4.93;;;;;;;;;;4920612;29;20174;-86
2023/03/17 00:23:15;;;;;;;2.75;2.22;;;;;;;;;;4903529;29;20194;-86
2023/03/17 00:25:42;;;;;;;4.15;2.33;;;;;;;;;;4903336;29;20636;-85
2023/03/17 00:28:14;;;;;;;2.55;2.25;;;;;;;;;;4903577;29;20591;-86
2023/03/17 00:30:40;;;;;;;9.68;2.95;;;;;;;;;;4903007;29;20210;-85
2023/03/17 00:33:06;;;;;;;5.15;2.63;;;;;;;;;;4919875;29;20197;-86
2023/03/17 00:35:33;;;;;;;5.20;3.50;;;;;;;;;;4919604;29;20241;-86
2023/03/17 00:37:59;;;;;;;3.30;3.00;;;;;;;;;;4920253;29;20241;-86
2023/03/17 00:40:28;;;;;;;5.55;2.35;;;;;;;;;;4919599;29;20253;-86
2023/03/17 00:42:54;;;;;;;4.28;3.33;;;;;;;;;;4920189;29;20171;-86
2023/03/17 00:45:22;;;;;;;3.70;2.70;;;;;;;;;;4919765;29;20201;-87
2023/03/17 00:47:48;;;;;;;3.67;2.70;;;;;;;;;;4902680;29;20189;-85
2023/03/17 00:50:21;;;;;;;4.43;3.00;;;;;;;;;;4902906;29;20218;-85
2023/03/17 00:52:48;;;;;;;7.00;2.90;;;;;;;;;;4919601;29;20174;-85
2023/03/17 00:55:15;;;;;;;3.10;2.47;;;;;;;;;;4902788;29;20190;-85
2023/03/17 00:57:42;;;;;;;3.72;2.50;;;;;;;;;;4919679;29;20202;-85
2023/03/17 01:00:17;;;;;;;3.17;2.58;;;;;;;;;;4919592;29;20178;-85
2023/03/17 01:02:44;;;;;;;3.95;2.42;;;;;;;;;;4898736;29;20186;-85
2023/03/17 01:05:10;;;;;;;3.42;2.55;;;;;;;;;;4884263;29;20191;-85
2023/03/17 01:07:37;;;;;;;3.08;2.00;;;;;;;;;;4899713;29;20221;-85
2023/03/17 01:10:05;;;;;;;2.67;2.47;;;;;;;;;;4899397;29;20198;-86
2023/03/17 01:12:31;;;;;;;4.32;3.00;;;;;;;;;;4900643;29;20219;-85
2023/03/17 01:14:57;;;;;;;3.45;2.40;;;;;;;;;;4899787;29;20270;-85
2023/03/17 01:17:24;;;;;;;3.20;2.00;;;;;;;;;;4900417;29;20193;-86
2023/03/17 01:19:50;;;;;;;6.85;2.30;;;;;;;;;;4900601;29;20211;-85
2023/03/17 01:22:16;;;;;;;8.30;2.97;;;;;;;;;;4900474;29;20231;-85
2023/03/17 01:24:42;;;;;;;8.52;3.05;;;;;;;;;;4898900;29;20198;-85
2023/03/17 01:27:08;;;;;;;4.10;2.50;;;;;;;;;;4900427;29;20277;-85
2023/03/17 01:29:34;;;;;;;3.75;3.35;;;;;;;;;;4899786;29;20182;-85
2023/03/17 01:32:00;;;;;;;4.15;2.47;;;;;;;;;;4899208;29;20297;-86
2023/03/17 01:34:27;;;;;;;5.72;3.03;;;;;;;;;;4900269;29;20191;-85
2023/03/17 01:36:53;;;;;;;4.75;3.20;;;;;;;;;;4883230;29;20595;-85
2023/03/17 01:39:19;;;;;;;7.13;3.58;;;;;;;;;;4900301;29;20275;-85
2023/03/17 01:41:46;;;;;;;8.35;4.13;;;;;;;;;;4899784;29;20191;-85
2023/03/17 01:44:17;;;;;;;8.02;4.13;;;;;;;;;;4900032;29;20702;-85
2023/03/17 01:46:44;;;;;;;5.93;4.43;;;;;;;;;;4898623;29;20197;-85
2023/03/17 01:49:10;;;;;;;8.57;4.88;;;;;;;;;;4898637;29;20210;-86
2023/03/17 01:51:45;;;;;;;4.97;3.80;;;;;;;;;;4899446;29;20612;-85
2023/03/17 01:54:16;;;;;;;6.07;3.85;;;;;;;;;;4900186;29;20191;-85
2023/03/17 01:56:44;;;;;;;4.93;3.90;;;;;;;;;;4900025;29;20171;-86
2023/03/17 01:59:13;;;;;;;4.35;3.30;;;;;;;;;;4899779;29;20254;-85
2023/03/17 02:01:42;;;;;;;5.65;3.83;;;;;;;;;;4899702;29;20278;-86
2023/03/17 02:04:10;;;;;;;6.30;3.17;;;;;;;;;;4898844;29;20175;-85
2023/03/17 02:06:37;;;;;;;4.82;3.33;;;;;;;;;;4897933;29;20198;-85
2023/03/17 02:09:03;;;;;;;7.50;2.97;;;;;;;;;;4898394;29;20182;-85
2023/03/17 02:11:29;;;;;;;6.28;3.55;;;;;;;;;;4899137;29;20305;-85
2023/03/17 02:13:55;;;;;;;5.72;2.95;;;;;;;;;;4898453;29;20182;-85
2023/03/17 02:16:22;;;;;;;5.20;3.47;;;;;;;;;;4898170;29;20195;-85
2023/03/17 02:18:48;;;;;;;4.43;2.78;;;;;;;;;;4897972;29;20182;-86
2023/03/17 02:21:37;;;;;;;3.90;2.75;;;;;;;;;;4899416;29;20179;-85
2023/03/17 02:24:06;;;;;;;6.68;2.63;;;;;;;;;;4899388;29;20167;-85
2023/03/17 02:26:33;;;;;;;6.60;3.45;;;;;;;;;;4898922;29;20179;-85
2023/03/17 02:28:59;;;;;;;4.60;2.75;;;;;;;;;;4899092;29;20178;-85
2023/03/17 02:31:26;;;;;;;6.10;2.80;;;;;;;;;;4897722;29;20219;-87
2023/03/17 02:33:52;;;;;;;5.28;3.00;;;;;;;;;;4898012;29;20182;-85
2023/03/17 02:36:19;;;;;;;4.03;2.47;;;;;;;;;;4899193;29;20238;-85
2023/03/17 02:38:45;;;;;;;4.63;2.67;;;;;;;;;;4882082;29;20229;-85
2023/03/17 02:41:11;;;;;;;4.90;2.65;;;;;;;;;;4899108;29;20211;-85
2023/03/17 02:43:37;;;;;;;4.35;2.28;;;;;;;;;;4898666;29;20238;-85
2023/03/17 02:46:04;;;;;;;3.25;2.90;;;;;;;;;;4897674;29;20647;-85
2023/03/17 02:48:30;;;;;;;4.82;2.30;;;;;;;;;;4897487;29;20183;-85
2023/03/17 02:50:56;;;;;;;5.60;2.95;;;;;;;;;;4899241;29;20218;-85
2023/03/17 02:53:22;;;;;;;4.05;2.75;;;;;;;;;;4899143;29;20175;-85
2023/03/17 02:55:49;;;;;;;3.88;2.20;;;;;;;;;;4898756;29;20203;-86
2023/03/17 02:58:15;;;;;;;6.03;2.60;;;;;;;;;;4898916;29;20178;-85
2023/03/17 03:00:41;;;;;;;3.20;2.33;;;;;;;;;;4897645;29;20194;-85
2023/03/17 03:03:08;;;;;;;5.30;3.10;;;;;;;;;;4897875;29;20174;-86
2023/03/17 03:05:34;;;;;;;3.42;2.30;;;;;;;;;;4898476;29;20191;-86
2023/03/17 03:08:01;;;;;;;5.10;2.40;;;;;;;;;;4898902;29;20192;-85
2023/03/17 03:10:27;;;;;;;4.78;2.75;;;;;;;;;;4899120;29;20218;-85
2023/03/17 03:12:53;;;;;;;3.35;2.75;;;;;;;;;;4897886;29;20186;-85
2023/03/17 03:15:19;;;;;;;4.22;3.45;;;;;;;;;;4900970;29;20192;-85
2023/03/17 03:17:45;;;;;;;7.18;3.22;;;;;;;;;;4901224;29;20274;-85
2023/03/17 03:20:12;;;;;;;3.35;2.78;;;;;;;;;;4885905;29;20242;-86
2023/03/17 03:22:38;;;;;;;2.38;2.17;;;;;;;;;;4901300;29;20268;-86
2023/03/17 03:25:04;;;;;;;3.42;2.55;;;;;;;;;;4902992;29;20183;-85
2023/03/17 03:27:31;;;;;;;6.95;2.92;;;;;;;;;;4901438;29;20217;-86
2023/03/17 03:29:57;;;;;;;5.57;2.22;;;;;;;;;;4901503;29;20175;-86
2023/03/17 03:32:23;;;;;;;4.53;3.15;;;;;;;;;;4901383;29;20197;-86
2023/03/17 03:34:49;;;;;;;4.38;2.63;;;;;;;;;;4902428;29;20253;-86
2023/03/17 03:37:15;;;;;;;3.50;2.40;;;;;;;;;;4900848;29;20726;-86
2023/03/17 03:39:41;;;;;;;4.70;3.10;;;;;;;;;;4900997;29;20270;-86
2023/03/17 03:42:07;;;;;;;4.03;2.90;;;;;;;;;;4902427;29;20218;-86
2023/03/17 03:44:34;;;;;;;4.78;2.70;;;;;;;;;;4900979;29;20601;-86
2023/03/17 03:47:00;;;;;;;4.85;2.50;;;;;;;;;;4901118;29;20187;-86
2023/03/17 03:49:26;;;;;;;3.35;2.40;;;;;;;;;;4901207;29;20175;-86
2023/03/17 03:51:52;;;;;;;3.90;2.40;;;;;;;;;;4902019;29;20253;-86
2023/03/17 03:54:19;;;;;;;3.20;2.50;;;;;;;;;;4900825;29;20189;-86
2023/03/17 03:56:45;;;;;;;7.97;2.97;;;;;;;;;;4900566;29;20189;-86
2023/03/17 03:59:11;;;;;;;5.60;2.60;;;;;;;;;;4902734;29;20257;-86
2023/03/17 04:01:38;;;;;;;5.75;2.80;;;;;;;;;;4900917;29;20238;-86
2023/03/17 04:04:04;;;;;;;3.80;2.30;;;;;;;;;;4900721;29;20624;-85
2023/03/17 04:06:30;;;;;;;3.03;2.63;;;;;;;;;;4901852;29;20191;-86
2023/03/17 04:08:56;;;;;;;3.38;2.17;;;;;;;;;;4901700;29;20179;-86
2023/03/17 04:11:22;;;;;;;3.70;2.60;;;;;;;;;;4900679;29;20583;-86
2023/03/17 04:13:48;;;;;;;3.33;2.40;;;;;;;;;;4901591;29;20663;-85
2023/03/17 04:16:15;;;;;;;3.97;2.40;;;;;;;;;;4900187;29;20194;-85
2023/03/17 04:18:41;;;;;;;3.70;2.80;;;;;;;;;;4900265;29;20239;-86
2023/03/17 04:21:07;;;;;;;4.05;2.67;;;;;;;;;;4901669;29;20187;-86
2023/03/17 04:23:33;;;;;;;3.72;2.53;;;;;;;;;;4900288;29;20185;-86
2023/03/17 04:25:59;;;;;;;5.72;2.65;;;;;;;;;;4901343;29;20191;-85
2023/03/17 04:28:26;;;;;;;4.07;2.40;;;;;;;;;;4900368;29;20305;-85
2023/03/17 04:30:52;;;;;;;5.85;2.45;;;;;;;;;;4900296;29;20206;-86
2023/03/17 04:33:19;;;;;;;3.83;3.10;;;;;;;;;;4885461;29;20193;-86
2023/03/17 04:35:45;;;;;;;5.25;2.40;;;;;;;;;;4900264;29;20242;-85
2023/03/17 04:38:12;;;;;;;3.00;2.70;;;;;;;;;;4901787;29;20174;-86
2023/03/17 04:40:38;;;;;;;3.08;2.40;;;;;;;;;;4899811;29;20644;-86
2023/03/17 04:43:05;;;;;;;3.88;2.85;;;;;;;;;;4900405;29;20185;-86
2023/03/17 04:45:31;;;;;;;9.77;2.63;;;;;;;;;;4900050;29;20179;-85
2023/03/17 04:47:57;;;;;;;6.65;2.97;;;;;;;;;;4899723;29;20193;-86
2023/03/17 04:50:23;;;;;;;6.90;2.40;;;;;;;;;;4901075;29;20266;-86
2023/03/17 04:52:50;;;;;;;4.18;2.63;;;;;;;;;;4901128;29;20516;-86
2023/03/17 04:55:16;;;;;;;5.65;2.90;;;;;;;;;;4899795;29;20192;-86
2023/03/17 04:57:42;;;;;;;6.97;2.60;;;;;;;;;;4901342;29;20190;-86
2023/03/17 05:00:08;;;;;;;2.90;2.05;;;;;;;;;;4884690;29;20244;-86
2023/03/17 05:02:37;;;;;;;7.35;3.45;;;;;;;;;;4900039;29;20301;-88
2023/03/17 05:05:03;;;;;;;6.28;3.55;;;;;;;;;;4901694;29;20219;-86
2023/03/17 05:07:30;;;;;;;4.93;2.60;;;;;;;;;;4903906;29;20266;-86
2023/03/17 05:09:56;;;;;;;5.53;2.92;;;;;;;;;;4899939;29;20186;-86
2023/03/17 05:12:22;;;;;;;5.18;3.13;;;;;;;;;;4901104;29;20211;-86
2023/03/17 05:14:48;;;;;;;3.15;2.85;;;;;;;;;;4901213;29;20178;-86
2023/03/17 05:17:15;;;;;;;4.40;3.20;;;;;;;;;;4899974;29;20193;-86
2023/03/17 05:19:41;;;;;;;5.05;3.70;;;;;;;;;;4899435;29;20183;-86
2023/03/17 05:22:07;;;;;;;3.97;2.80;;;;;;;;;;4901335;29;20186;-87
2023/03/17 05:24:33;;;;;;;6.28;3.40;;;;;;;;;;4901346;29;20550;-86
2023/03/17 05:26:59;;;;;;;4.10;3.22;;;;;;;;;;4900284;29;20178;-86
2023/03/17 05:29:25;;;;;;;5.65;2.92;;;;;;;;;;4901148;29;20182;-86
2023/03/17 05:31:51;;;;;;;3.20;2.90;;;;;;;;;;4901050;29;20207;-86
2023/03/17 05:34:17;;;;;;;6.70;3.78;;;;;;;;;;4900699;29;20186;-86
2023/03/17 05:36:45;;;;;;;3.67;2.50;;;;;;;;;;4900032;29;20231;-85
2023/03/17 05:39:11;;;;;;;8.75;3.47;;;;;;;;;;4884740;29;20237;-86
2023/03/17 05:41:37;;;;;;;3.38;3.00;;;;;;;;;;4900236;29;20183;-87
2023/03/17 05:44:03;;;;;;;3.25;2.63;;;;;;;;;;4901979;29;20187;-86
2023/03/17 05:46:29;;;;;;;6.55;2.55;;;;;;;;;;4903426;29;20187;-85
2023/03/17 05:48:56;;;;;;;3.35;2.72;;;;;;;;;;4902679;29;20281;-85
2023/03/17 05:51:22;;;;;;;4.40;3.13;;;;;;;;;;4876933;29;20215;-85
2023/03/17 05:53:48;;;;;;;6.18;2.90;;;;;;;;;;4888828;29;20179;-87
2023/03/17 05:56:14;;;;;;;3.25;2.78;;;;;;;;;;4904143;29;20183;-87
2023/03/17 05:58:40;;;;;;;3.83;2.45;;;;;;;;;;4887241;29;20183;-87
2023/03/17 06:01:06;;;;;;;3.90;2.92;;;;;;;;;;4872938;29;20194;-87
2023/03/17 06:03:33;;;;;;;3.75;2.80;;;;;;;;;;4872963;29;20189;-87
2023/03/17 06:05:59;;;;;;;4.20;2.50;;;;;;;;;;4888176;29;20190;-87
2023/03/17 06:08:25;;;;;;;3.85;2.60;;;;;;;;;;4889074;29;20557;-87
2023/03/17 06:10:51;;;;;;;5.10;2.70;;;;;;;;;;4888665;29;20210;-87
2023/03/17 06:13:17;;;;;;;3.80;2.75;;;;;;;;;;4887488;29;20230;-87
2023/03/17 06:15:44;;;;;;;3.35;2.78;;;;;;;;;;4884206;29;20175;-87
2023/03/17 06:18:10;;;;;;;3.53;2.60;;;;;;;;;;4870740;29;20281;-87
2023/03/17 06:20:36;;;;;;;3.33;2.33;;;;;;;;;;4871085;29;20217;-87
2023/03/17 06:23:02;;;;;;;4.20;2.75;;;;;;;;;;4915833;29;20202;-87
2023/03/17 06:25:29;;;;;;;4.13;2.50;;;;;;;;;;4887168;29;20713;-86
2023/03/17 06:27:56;;;;;;;5.15;2.22;;;;;;;;;;4920812;29;20182;-86
2023/03/17 06:30:22;;;;;;;4.80;2.83;;;;;;;;;;4887503;29;20188;-86
2023/03/17 06:32:49;;;;;;;2.97;2.38;;;;;;;;;;4918136;29;20174;-87
2023/03/17 06:35:15;;;;;;;7.88;2.75;;;;;;;;;;4918213;29;20171;-87
2023/03/17 06:37:41;;;;;;;3.72;2.25;;;;;;;;;;4918159;29;20159;-87
2023/03/17 06:40:09;;;;;;;7.13;2.72;;;;;;;;;;4918623;29;20213;-87
2023/03/17 06:42:35;;;;;;;4.47;2.47;;;;;;;;;;4885963;29;20189;-86
2023/03/17 06:45:02;;;;;;;4.60;2.53;;;;;;;;;;4917777;29;20186;-86
2023/03/17 06:47:28;;;;;;;7.97;2.60;;;;;;;;;;4886837;29;20197;-87
2023/03/17 06:49:54;;;;;;;5.57;2.83;;;;;;;;;;4882014;29;20182;-87
2023/03/17 06:52:21;;;;;;;3.10;2.55;;;;;;;;;;4882850;29;20633;-86
2023/03/17 06:54:47;;;;;;;7.30;2.78;;;;;;;;;;4900193;29;20262;-86
2023/03/17 06:57:13;;;;;;;3.90;2.38;;;;;;;;;;4884034;29;20186;-86
2023/03/17 06:59:39;;;;;;;5.10;3.05;;;;;;;;;;4883058;29;20226;-86
2023/03/17 07:02:05;;;;;;;3.35;2.45;;;;;;;;;;4882474;29;20191;-86
2023/03/17 07:04:31;;;;;;;6.43;3.05;;;;;;;;;;4900208;29;20190;-86
2023/03/17 07:07:02;;;;;;;3.20;2.42;;;;;;;;;;4882947;29;20632;-86
2023/03/17 07:09:28;;;;;;;3.88;2.30;;;;;;;;;;4883363;29;20209;-86
2023/03/17 07:11:54;;;;;;;5.30;2.67;;;;;;;;;;4883183;29;20214;-82
2023/03/17 07:14:20;;;;;;;4.75;2.40;;;;;;;;;;4900372;29;20181;-82
2023/03/17 07:16:47;;;;;;;7.00;3.20;;;;;;;;;;4899776;29;20175;-83
2023/03/17 07:19:13;;;;;;;5.03;2.60;;;;;;;;;;4882797;29;20197;-82
2023/03/17 07:21:39;;;;;;;4.75;2.60;;;;;;;;;;4867432;29;20195;-82
2023/03/17 07:24:05;;;;;;;4.03;2.75;;;;;;;;;;4882955;29;20187;-82
2023/03/17 07:26:31;;;;;;;4.88;2.45;;;;;;;;;;4867247;29;20238;-82
2023/03/17 07:29:00;;;;;;;5.05;2.20;;;;;;;;;;4867670;29;20195;-82
2023/03/17 07:31:26;;;;;;;6.75;2.35;;;;;;;;;;4899896;29;20213;-82
2023/03/17 07:33:52;;;;;;;2.10;1.90;;;;;;;;;;4899351;29;20182;-83
2023/03/17 07:36:18;;;;;;;4.78;2.65;;;;;;;;;;4900097;29;20226;-82
2023/03/17 07:38:45;;;;;;;4.15;2.38;;;;;;;;;;4883094;29;20191;-84
2023/03/17 07:41:11;;;;;;;4.85;1.98;;;;;;;;;;4883220;29;20218;-82
2023/03/17 07:43:37;;;;;;;3.80;2.50;;;;;;;;;;4882963;29;20217;-82
2023/03/17 07:46:03;;;;;;;3.25;1.95;;;;;;;;;;4882535;29;20475;-82
2023/03/17 07:48:30;;;;;;;4.07;2.50;;;;;;;;;;4899638;29;20183;-81
2023/03/17 07:50:56;;;;;;;4.45;2.15;;;;;;;;;;4899606;29;20568;-81
2023/03/17 07:53:22;;;;;;;2.42;1.83;;;;;;;;;;4883126;29;20194;-81
2023/03/17 07:55:48;;;;;;;4.47;1.80;;;;;;;;;;4882639;29;20187;-80
2023/03/17 07:58:15;;;;;;;2.58;1.92;;;;;;;;;;4883314;29;20416;-82
2023/03/17 08:00:41;;;;;;;5.30;2.42;;;;;;;;;;4899549;29;20202;-81
2023/03/17 08:03:07;;;;;;;4.10;2.20;;;;;;;;;;4902280;29;20205;-81
2023/03/17 08:05:33;;;;;;;2.80;1.93;;;;;;;;;;4886724;29;20530;-81
2023/03/17 08:07:59;;;;;;;2.80;1.80;;;;;;;;;;4886798;29;20415;-80
2023/03/17 08:10:25;;;;;;;2.42;1.95;;;;;;;;;;4886800;29;20187;-81
2023/03/17 08:12:52;;;;;;;2.30;1.73;;;;;;;;;;4902531;29;20181;-81
2023/03/17 08:15:18;;;;;;;3.95;2.17;;;;;;;;;;4886672;29;20423;-80
2023/03/17 08:17:44;;;;;;;5.90;2.20;;;;;;;;;;4886338;29;20202;-81
2023/03/17 08:20:11;;;;;;;4.78;2.35;;;;;;;;;;4903188;29;20812;-80
2023/03/17 08:22:37;;;;;;;5.33;2.20;;;;;;;;;;4903013;29;20179;-81
2023/03/17 08:25:03;;;;;;;4.38;2.20;;;;;;;;;;4870483;29;20422;-81
2023/03/17 08:27:29;;;;;;;2.17;1.90;;;;;;;;;;4886320;29;20194;-81
2023/03/17 08:29:55;;;;;;;3.50;2.03;;;;;;;;;;4885986;29;20412;-81
2023/03/17 08:32:22;;;;;;;3.13;1.80;;;;;;;;;;4885488;29;20526;-81
2023/03/17 08:34:52;;;;;;;3.80;1.47;;;;;;;;;;4902164;29;20407;-82
2023/03/17 08:37:18;;;;;;;2.90;2.13;;;;;;;;;;4901935;29;20449;-81
2023/03/17 08:39:44;;;;;;;2.27;1.70;;;;;;;;;;4902256;29;20471;-81
2023/03/17 08:42:10;;;;;;;3.00;2.10;;;;;;;;;;4869827;29;20431;-81
2023/03/17 08:44:36;;;;;;;3.40;1.83;;;;;;;;;;4885466;29;20845;-80
2023/03/17 08:47:02;;;;;;;3.37;1.73;;;;;;;;;;4885680;29;20483;-81
2023/03/17 08:49:29;;;;;;;3.00;1.77;;;;;;;;;;4901916;29;20806;-80
2023/03/17 08:51:55;;;;;;;3.03;1.73;;;;;;;;;;4884714;29;20479;-81
2023/03/17 08:54:22;;;;;;;3.20;1.93;;;;;;;;;;4902225;29;20416;-81
2023/03/17 08:56:48;;;;;;;3.30;1.90;;;;;;;;;;4885603;29;20435;-81
2023/03/17 08:59:14;;;;;;;3.83;2.00;;;;;;;;;;4884601;29;20423;-81
2023/03/17 09:01:40;;;;;;;4.43;2.20;;;;;;;;;;4901532;29;20514;-81
2023/03/17 09:04:07;;;;;;;6.07;2.00;;;;;;;;;;4884582;29;20419;-81
2023/03/17 09:06:33;;;;;;;2.40;1.97;;;;;;;;;;4884950;29;20439;-81
2023/03/17 09:09:00;;;;;;;5.67;2.70;;;;;;;;;;4901798;29;20386;-81
2023/03/17 09:11:28;;;;;;;5.00;2.30;;;;;;;;;;4884615;29;20558;-81
2023/03/17 09:13:54;;;;;;;4.60;2.60;;;;;;;;;;4901504;29;20437;-80
2023/03/17 09:16:22;;;;;;;5.60;2.93;;;;;;;;;;4884680;29;20936;-81
2023/03/17 09:18:48;;;;;;;2.93;2.10;;;;;;;;;;4901886;29;20403;-81
2023/03/17 09:21:15;;;;;;;5.33;2.47;;;;;;;;;;4901164;29;20416;-81
2023/03/17 09:23:41;;;;;;;5.13;2.73;;;;;;;;;;4901701;29;20491;-80
2023/03/17 09:26:07;;;;;;;5.53;3.30;;;;;;;;;;4901406;29;20486;-81
2023/03/17 09:28:33;;;;;;;4.90;2.03;;;;;;;;;;4901034;29;20423;-81
2023/03/17 09:31:01;;;;;;;4.60;3.03;;;;;;;;;;4884071;29;20471;-81
2023/03/17 09:33:27;;;;;;;5.67;2.30;;;;;;;;;;4901395;29;20429;-81
2023/03/17 09:35:55;;;;;;;6.00;2.93;;;;;;;;;;4868023;29;20478;-81
2023/03/17 09:38:22;;;;;;;5.10;2.43;;;;;;;;;;4884124;29;20419;-80
2023/03/17 09:41:04;;;;;;;4.43;2.97;;;;;;;;;;4900581;29;20419;-81
2023/03/17 09:43:36;;;;;;;5.43;2.10;;;;;;;;;;4900737;29;20888;-81
2023/03/17 09:46:10;;;;;;;4.80;2.70;;;;;;;;;;4883853;29;20462;-81
2023/03/17 09:48:39;;;;;;;2.90;1.93;;;;;;;;;;4900426;29;20887;-81
2023/03/17 09:51:10;;;;;;;6.10;2.70;;;;;;;;;;4900266;29;20463;-81
2023/03/17 09:53:40;;;;;;;7.00;2.20;;;;;;;;;;4900810;29;20418;-81
2023/03/17 09:56:08;;;;;;;4.07;2.10;;;;;;;;;;4900081;29;20407;-81
2023/03/17 09:58:36;;;;;;;4.47;1.80;;;;;;;;;;4900345;29;20430;-81
2023/03/17 10:01:04;;;;;;;4.73;2.00;;;;;;;;;;4899971;29;20769;-81
2023/03/17 10:03:31;;;;;;;5.03;2.17;;;;;;;;;;4883610;29;20418;-81
2023/03/17 10:06:12;;;;;;;3.43;2.40;;;;;;;;;;4883721;29;20406;-81
2023/03/17 10:08:42;;;;;;;2.77;2.10;;;;;;;;;;4883417;29;20411;-81
2023/03/17 10:11:21;;;;;;;2.80;1.80;;;;;;;;;;4899557;29;20888;-81
2023/03/17 10:14:04;;;;;;;4.47;2.10;;;;;;;;;;4899401;29;20407;-79
2023/03/17 10:16:40;;;;;;;2.47;2.03;;;;;;;;;;4899631;29;20479;-79
2023/03/17 10:19:15;;;;;;;5.37;2.07;;;;;;;;;;4898851;29;20813;-79
2023/03/17 10:21:46;;;;;;;2.17;1.90;;;;;;;;;;4899767;29;20397;-81
2023/03/17 10:24:13;;;;;;;3.40;2.00;;;;;;;;;;4898640;29;20377;-81
2023/03/17 10:26:41;;;;;;;5.03;3.00;;;;;;;;;;4867206;29;20430;-81
2023/03/17 10:29:16;;;;;;;3.70;1.93;;;;;;;;;;4901696;29;20411;-95
2023/03/17 10:31:42;;;;;;;9.00;2.73;;;;;;;;;;4905245;29;20788;-95
2023/03/17 10:34:15;;;;;;;5.10;2.80;;;;;;;;;;4888061;29;20382;-95
2023/03/17 10:36:45;;;;;;;7.50;2.70;;;;;;;;;;4886080;29;20490;-93
2023/03/17 10:39:13;;;;;;;5.20;2.53;;;;;;;;;;4885199;29;20427;-95
2023/03/17 10:41:40;;;;;;;5.10;2.43;;;;;;;;;;4886368;29;20478;-93
2023/03/17 10:44:20;;;;;;;3.40;2.00;;;;;;;;;;4888266;29;20397;-91
2023/03/17 10:46:52;;;;;;;2.07;1.60;;;;;;;;;;4882678;29;20402;-82
2023/03/17 10:49:21;;;;;;;3.17;1.73;;;;;;;;;;4898678;29;20412;-82
2023/03/17 10:51:51;;;;;;;7.40;2.80;;;;;;;;;;4882137;29;20442;-81
2023/03/17 10:54:18;;;;;;;6.07;2.93;;;;;;;;;;4898490;29;20386;-81
2023/03/17 10:56:46;;;;;;;4.73;2.17;;;;;;;;;;4882012;29;20746;-81
2023/03/17 10:59:20;;;;;;;9.00;3.20;;;;;;;;;;4898344;29;20784;-81
2023/03/17 11:01:52;;;;;;;3.63;2.60;;;;;;;;;;4881812;29;20797;-83
2023/03/17 11:04:25;;;;;;;7.03;1.93;;;;;;;;;;4897954;29;20444;-81
2023/03/17 11:06:51;;;;;;;4.90;2.27;;;;;;;;;;4898430;29;20745;-81
2023/03/17 11:09:20;;;;;;;3.40;2.57;;;;;;;;;;4901292;29;20426;-79
2023/03/17 11:11:47;;;;;;;3.73;1.73;;;;;;;;;;4883404;29;20440;-79
2023/03/17 11:14:17;;;;;;;5.23;2.17;;;;;;;;;;4882586;29;20416;-78
2023/03/17 11:16:55;;;;;;;4.80;2.10;;;;;;;;;;4903593;29;20422;-80
2023/03/17 11:19:29;;;;;;;2.73;1.43;;;;;;;;;;4897841;29;20411;-79
2023/03/17 11:22:10;;;;;;;3.87;2.20;;;;;;;;;;4898127;29;20386;-81
2023/03/17 11:24:44;;;;;;;3.30;2.00;;;;;;;;;;4898011;29;20384;-81
2023/03/17 11:27:24;;;;;;;7.23;1.90;;;;;;;;;;4897594;29;20415;-80
2023/03/17 11:30:09;;;;;;;9.43;2.97;;;;;;;;;;4898382;29;20443;-81
2023/03/17 11:32:49;;;;;;;5.63;3.00;;;;;;;;;;4881301;29;20554;-81
2023/03/17 11:35:34;;;;;;;3.40;2.30;;;;;;;;;;4897951;29;20853;-81
2023/03/17 11:38:12;;;;;;;2.27;1.73;;;;;;;;;;4901525;29;20411;-81
2023/03/17 11:40:42;;;;;;;2.73;1.73;;;;;;;;;;4904563;29;20423;-82
2023/03/17 11:43:11;;;;;;;3.60;2.10;;;;;;;;;;4896100;29;20419;-82
2023/03/17 11:45:51;;;;;;;7.87;2.53;;;;;;;;;;4911874;29;20465;-81
2023/03/17 11:48:30;;;;;;;6.13;2.10;;;;;;;;;;4908781;29;20419;-81
2023/03/17 11:51:02;;;;;;;4.43;1.90;;;;;;;;;;4884913;29;20892;-81
2023/03/17 11:53:49;;;;;;;3.10;1.97;;;;;;;;;;4884693;29;20514;-81
2023/03/17 11:56:15;;;;;;;4.00;2.13;;;;;;;;;;4865501;29;20423;-81
2023/03/17 11:58:43;;;;;;;8.70;2.20;;;;;;;;;;4884425;29;20405;-81
2023/03/17 12:01:13;;;;;;;3.17;1.93;;;;;;;;;;4884324;29;20419;-81
2023/03/17 12:03:44;;;;;;;3.40;2.10;;;;;;;;;;4901551;29;20418;-81
2023/03/17 12:06:37;;;;;;;2.00;1.60;;;;;;;;;;4901503;29;20431;-81
2023/03/17 12:09:13;;;;;;;4.33;2.23;;;;;;;;;;4898875;29;20401;-82
2023/03/17 12:11:43;;;;;;;7.47;2.00;;;;;;;;;;4901685;29;20556;-80
2023/03/17 12:14:32;;;;;;;2.10;1.90;;;;;;;;;;4884277;29;20394;-80
2023/03/17 12:17:11;;;;;;;3.20;2.07;;;;;;;;;;4879203;29;20416;-80
2023/03/17 12:19:44;;;;;;;2.47;2.20;;;;;;;;;;4884113;29;20423;-80
2023/03/17 12:22:42;;;;;;;6.23;1.80;;;;;;;;;;4900895;29;20407;-81
2023/03/17 12:25:18;;;;;;;3.50;1.87;;;;;;;;;;4879003;29;20406;-82
2023/03/17 12:28:21;;;;;;;3.10;1.67;;;;;;;;;;4900811;29;20415;-81
2023/03/17 12:30:53;;;;;;;3.10;1.60;;;;;;;;;;4861324;29;20447;-81
2023/03/17 12:33:30;;;;;;;3.80;1.80;;;;;;;;;;4880720;29;20406;-81
2023/03/17 12:35:57;;;;;;;2.83;1.73;;;;;;;;;;4900836;29;20466;-80
2023/03/17 12:38:29;;;;;;;2.33;1.57;;;;;;;;;;4900321;29;20431;-80
2023/03/17 12:40:58;;;;;;;2.70;1.63;;;;;;;;;;4884042;29;20414;-80
2023/03/17 12:43:43;;;;;;;3.37;1.63;;;;;;;;;;4883512;29;20911;-80
2023/03/17 12:46:18;;;;;;;5.13;2.00;;;;;;;;;;4900220;29;20408;-81
2023/03/17 12:48:44;;;;;;;10.37;2.50;;;;;;;;;;4899727;29;20887;-80
2023/03/17 12:51:22;;;;;;;3.77;2.00;;;;;;;;;;4900306;29;20467;-81
2023/03/17 12:53:50;;;;;;;5.60;2.13;;;;;;;;;;4900148;29;20407;-82
2023/03/17 12:56:16;;;;;;;5.60;1.77;;;;;;;;;;4899564;29;20421;-81
2023/03/17 12:58:47;;;;;;;6.40;2.10;;;;;;;;;;4883199;29;20404;-80
2023/03/17 13:01:31;;;;;;;7.23;2.20;;;;;;;;;;4899816;29;20743;-80
2023/03/17 13:04:03;;;;;;;7.77;2.20;;;;;;;;;;4900490;29;20395;-80
2023/03/17 13:06:31;;;;;;;3.90;2.10;;;;;;;;;;4900133;29;20799;-81
2023/03/17 13:09:17;;;;;;;4.37;2.23;;;;;;;;;;4882918;29;20446;-81
2023/03/17 13:11:43;;;;;;;7.43;1.80;;;;;;;;;;4899992;29;20470;-81
2023/03/17 13:14:39;;;;;;;1.97;1.70;;;;;;;;;;4899535;29;20467;-81
2023/03/17 13:17:23;;;;;;;2.97;1.60;;;;;;;;;;4899193;29;20410;-82
2023/03/17 13:19:55;;;;;;;2.80;1.70;;;;;;;;;;4899773;29;20441;-82
2023/03/17 13:22:21;;;;;;;3.70;1.70;;;;;;;;;;4899801;29;20468;-81
2023/03/17 13:24:51;;;;;;;3.37;1.63;;;;;;;;;;4899652;29;20399;-82
2023/03/17 13:27:30;;;;;;;4.63;1.80;;;;;;;;;;4899788;29;20400;-82
2023/03/17 13:29:56;;;;;;;3.37;1.87;;;;;;;;;;4900095;29;20439;-82
2023/03/17 13:32:25;;;;;;;3.93;2.20;;;;;;;;;;4899270;29;20499;-80
2023/03/17 13:35:12;;;;;;;3.37;2.00;;;;;;;;;;4899450;29;20503;-80
2023/03/17 13:37:41;;;;;;;2.67;1.87;;;;;;;;;;4899893;29;20431;-80
2023/03/17 13:40:21;;;;;;;5.23;2.23;;;;;;;;;;4882706;29;20488;-81
2023/03/17 13:42:56;;;;;;;4.57;2.00;;;;;;;;;;4899513;29;20419;-80
2023/03/17 13:45:40;;;;;;;4.97;2.30;;;;;;;;;;4899289;29;20460;-81
2023/03/17 13:48:28;;;;;;;3.20;1.73;;;;;;;;;;4899169;29;20392;-81
2023/03/17 13:51:14;;;;;;;3.47;2.20;;;;;;;;;;4899123;29;20475;-80
2023/03/17 13:53:42;;;;;;;3.93;1.53;;;;;;;;;;4899638;29;20868;-80
2023/03/17 13:56:10;;;;;;;3.93;1.97;;;;;;;;;;4882483;29;20835;-82
2023/03/17 13:58:49;;;;;;;5.17;1.87;;;;;;;;;;4881761;29;20514;-81
2023/03/17 14:01:15;;;;;;;5.37;2.20;;;;;;;;;;4882041;29;20451;-81
2023/03/17 14:03:47;;;;;;;3.20;1.60;;;;;;;;;;4866899;29;20404;-80
2023/03/17 14:06:13;;;;;;;5.70;1.67;;;;;;;;;;4898952;29;20409;-82
2023/03/17 14:08:48;;;;;;;4.13;1.80;;;;;;;;;;4898838;29;20405;-82
2023/03/17 14:11:34;;;;;;;5.73;1.33;;;;;;;;;;4881983;29;20992;-81
2023/03/17 14:14:03;;;;;;;2.30;1.53;;;;;;;;;;4881817;29;20796;-81
2023/03/17 14:16:31;;;;;;;2.50;1.70;;;;;;;;;;4881895;29;20430;-81
2023/03/17 14:19:00;;;;;;;1.90;1.40;;;;;;;;;;4898895;29;20415;-80
2023/03/17 14:21:30;;;;;;;4.60;2.10;;;;;;;;;;4898642;29;20408;-80
2023/03/17 14:23:59;;;;;;;3.40;1.70;;;;;;;;;;4898755;29;20411;-80
2023/03/17 14:26:26;;;;;;;4.23;2.07;;;;;;;;;;4881659;29;20485;-86
2023/03/17 14:28:53;;;;;;;2.63;1.70;;;;;;;;;;4898654;29;21021;-81
2023/03/17 14:31:23;;;;;;;1.83;1.30;;;;;;;;;;4881821;29;20839;-80
2023/03/17 14:33:51;;;;;;;3.30;1.60;;;;;;;;;;4898778;29;20386;-81
2023/03/17 14:36:17;;;;;;;1.93;1.40;;;;;;;;;;4881316;29;21010;-81
2023/03/17 14:38:51;;;;;;;2.03;1.17;;;;;;;;;;4881620;29;20406;-80
2023/03/17 14:41:19;;;;;;;2.20;1.40;;;;;;;;;;4883239;29;20400;-80
2023/03/17 14:43:45;;;;;;;1.83;1.50;;;;;;;;;;4895221;29;20936;-79
2023/03/17 14:46:30;;;;;;;4.00;1.33;;;;;;;;;;4879827;29;20427;-80
2023/03/17 14:49:17;;;;;;;2.20;1.30;;;;;;;;;;4890721;29;20789;-80
2023/03/17 14:51:43;;;;;;;5.60;2.17;;;;;;;;;;4880993;29;20457;-80
2023/03/17 14:54:17;;;;;;;3.97;1.60;;;;;;;;;;4902891;29;20416;-79